createdAt,value
2022-12-12T00:02:44.398Z,-0.72
2022-12-12T00:07:48.793Z,-0.69
2022-12-12T00:12:51.700Z,-0.74
2022-12-12T00:17:54.452Z,-0.76
2022-12-12T00:22:58.596Z,-0.75
2022-12-12T00:28:02.563Z,-0.71
2022-12-12T00:33:05.292Z,-0.69
2022-12-12T00:38:09.536Z,-0.68
2022-12-12T00:43:12.648Z,-0.65
2022-12-12T00:48:15.380Z,-0.65
2022-12-12T00:53:19.712Z,-0.64
2022-12-12T00:58:22.479Z,-0.64
2022-12-12T01:03:25.278Z,-0.60
2022-12-12T01:08:29.724Z,-0.61
2022-12-12T01:13:32.536Z,-0.59
2022-12-12T01:18:35.561Z,-0.59
2022-12-12T01:23:39.691Z,-0.60
2022-12-12T01:28:43.706Z,-0.67
2022-12-12T01:33:46.984Z,-0.71
2022-12-12T01:38:54.338Z,-0.70
2022-12-12T01:43:58.099Z,-0.68
2022-12-12T01:49:04.937Z,-0.68
2022-12-12T01:54:11.489Z,-0.70
2022-12-12T01:59:16.628Z,-0.77
2022-12-12T02:04:20.056Z,-0.71
2022-12-12T02:09:26.334Z,-0.71
2022-12-12T02:14:32.574Z,-0.69
2022-12-12T02:20:30.016Z,-0.71
2022-12-12T02:26:10.325Z,-0.73
2022-12-12T02:31:21.088Z,-0.71
2022-12-12T02:36:33.564Z,-0.75
2022-12-12T02:41:41.893Z,-0.75
2022-12-12T02:46:52.448Z,-0.74
2022-12-12T02:51:56.894Z,-0.74
2022-12-12T02:57:01.259Z,-0.76
2022-12-12T03:02:45.658Z,-0.79
2022-12-12T03:07:58.303Z,-0.75
2022-12-12T03:13:12.341Z,-0.75
2022-12-12T03:18:25.966Z,-0.75
2022-12-12T03:23:33.710Z,-0.74
2022-12-12T03:28:40.639Z,-0.74
2022-12-12T03:33:47.613Z,-0.72
2022-12-12T03:38:57.287Z,-0.77
2022-12-12T03:44:06.740Z,-0.77
2022-12-12T03:49:16.837Z,-0.76
2022-12-12T03:54:26.546Z,-0.75
2022-12-12T03:59:33.662Z,-0.74
2022-12-12T04:04:44.960Z,-0.71
2022-12-12T04:10:05.712Z,-0.72
2022-12-12T04:15:46.982Z,-0.74
2022-12-12T04:21:21.767Z,-0.71
2022-12-12T04:26:41.921Z,-0.75
2022-12-12T04:31:51.479Z,-0.75
2022-12-12T04:36:56.010Z,-0.71
2022-12-12T04:42:02.045Z,-0.76
2022-12-12T04:47:08.355Z,-0.76
2022-12-12T04:52:15.261Z,-0.75
2022-12-12T04:57:21.509Z,-0.78
2022-12-12T05:02:31.821Z,-0.80
2022-12-12T05:07:40.456Z,-0.80
2022-12-12T05:12:45.597Z,-0.82
2022-12-12T05:17:50.959Z,-0.80
2022-12-12T05:22:55.084Z,-0.84
2022-12-12T05:27:58.226Z,-0.84
2022-12-12T05:33:01.178Z,-0.84
2022-12-12T05:38:05.341Z,-0.86
2022-12-12T05:43:08.109Z,-0.85
2022-12-12T05:48:10.929Z,-0.86
2022-12-12T05:53:15.316Z,-0.89
2022-12-12T05:58:18.214Z,-0.88
2022-12-12T06:03:21.590Z,-0.89
2022-12-12T06:08:25.847Z,-0.88
2022-12-12T06:13:28.795Z,-0.88
2022-12-12T06:18:31.826Z,-0.92
2022-12-12T06:23:38.266Z,-0.88
2022-12-12T06:28:41.301Z,-0.88
2022-12-12T06:33:44.316Z,-0.90
2022-12-12T06:38:48.541Z,-0.90
2022-12-12T06:43:51.611Z,-0.91
2022-12-12T06:48:56.409Z,-0.89
2022-12-12T06:54:00.820Z,-0.91
2022-12-12T06:59:03.681Z,-0.90
2022-12-12T07:04:07.126Z,-0.92
2022-12-12T07:09:11.997Z,-0.92
2022-12-12T07:14:14.812Z,-0.90
2022-12-12T07:19:17.898Z,-0.90
2022-12-12T07:24:23.815Z,-0.92
2022-12-12T07:29:27.328Z,-0.87
2022-12-12T07:34:30.892Z,-0.86
2022-12-12T07:39:37.162Z,-0.86
2022-12-12T07:44:40.238Z,-0.81
2022-12-12T07:49:43.095Z,-0.79
2022-12-12T07:54:48.422Z,-0.75
2022-12-12T07:59:54.115Z,-0.71
2022-12-12T08:04:58.001Z,-0.68
2022-12-12T08:10:03.405Z,-0.69
2022-12-12T08:15:10.506Z,-0.64
2022-12-12T08:20:15.834Z,-0.59
2022-12-12T08:25:20.924Z,-0.59
2022-12-12T08:30:23.742Z,-0.56
2022-12-12T08:35:26.594Z,-0.47
2022-12-12T08:40:31.394Z,-0.44
2022-12-12T08:45:35.021Z,-0.34
2022-12-12T08:50:41.889Z,-0.37
2022-12-12T08:55:46.042Z,-0.24
2022-12-12T09:00:48.760Z,-0.18
2022-12-12T09:05:55.080Z,-0.12
2022-12-12T09:10:59.526Z,-0.13
2022-12-12T09:16:02.360Z,-0.08
2022-12-12T09:21:06.516Z,-0.15
2022-12-12T09:26:11.933Z,-0.10
2022-12-12T09:31:14.937Z,0.02
2022-12-12T09:36:18.248Z,0.19
2022-12-12T09:41:27.983Z,0.12
2022-12-12T09:46:39.681Z,0.31
2022-12-12T09:51:45.654Z,0.36
2022-12-12T09:57:20.925Z,0.40
2022-12-12T10:02:38.363Z,0.56
2022-12-12T10:07:48.168Z,0.52
2022-12-12T10:12:53.987Z,0.55
2022-12-12T10:17:59.024Z,0.81
2022-12-12T10:23:07.111Z,0.97
2022-12-12T10:28:14.898Z,0.85
2022-12-12T10:33:26.712Z,0.96
2022-12-12T10:38:42.489Z,0.88
2022-12-12T10:43:54.557Z,1.04
2022-12-12T10:48:58.026Z,1.19
2022-12-12T10:54:00.931Z,1.04
2022-12-12T10:59:05.200Z,1.08
2022-12-12T11:04:07.955Z,1.23
2022-12-12T11:09:19.333Z,1.27
2022-12-12T11:14:29.082Z,1.23
2022-12-12T11:19:40.029Z,1.28
2022-12-12T11:24:46.373Z,1.35
2022-12-12T11:29:53.643Z,1.44
2022-12-12T11:34:59.985Z,1.23
2022-12-12T11:40:03.596Z,1.29
2022-12-12T11:45:25.036Z,1.32
2022-12-12T11:50:30.937Z,1.50
2022-12-12T11:55:40.613Z,1.18
2022-12-12T12:00:52.039Z,1.34
2022-12-12T12:06:09.156Z,1.20
2022-12-12T12:11:20.902Z,1.39
2022-12-12T12:16:35.883Z,1.29
2022-12-12T12:21:50.601Z,1.53
2022-12-12T12:27:03.648Z,1.48
2022-12-12T12:32:18.181Z,1.69
2022-12-12T12:37:33.603Z,1.70
2022-12-12T12:42:51.601Z,1.91
2022-12-12T12:48:07.238Z,1.75
2022-12-12T12:53:26.030Z,1.91
2022-12-12T12:58:34.521Z,1.75
2022-12-12T13:03:47.033Z,1.65
2022-12-12T13:08:57.447Z,1.32
2022-12-12T13:14:10.745Z,1.30
2022-12-12T13:19:23.448Z,1.25
2022-12-12T13:24:33.492Z,1.21
2022-12-12T13:29:44.656Z,1.08
2022-12-12T13:34:54.017Z,1.03
2022-12-12T13:40:01.496Z,1.18
2022-12-12T13:45:37.541Z,0.92
2022-12-12T13:50:41.820Z,0.92
2022-12-12T13:55:44.728Z,0.82
2022-12-12T14:00:49.124Z,0.91
2022-12-12T14:05:55.030Z,0.82
2022-12-12T14:11:02.095Z,0.80
2022-12-12T14:16:08.704Z,0.65
2022-12-12T14:21:15.312Z,0.58
2022-12-12T14:26:50.227Z,0.50
2022-12-12T14:32:04.946Z,0.41
2022-12-12T14:37:36.122Z,0.37
2022-12-12T14:43:15.455Z,0.36
2022-12-12T14:48:22.693Z,0.28
2022-12-12T14:53:31.894Z,0.10
2022-12-12T14:58:37.836Z,0.14
2022-12-12T15:03:45.648Z,0.03
2022-12-12T15:08:50.756Z,-0.04
2022-12-12T15:13:55.909Z,-0.12
2022-12-12T15:19:00.770Z,-0.19
2022-12-12T15:24:05.733Z,-0.31
2022-12-12T15:29:09.117Z,-0.39
2022-12-12T15:34:40.937Z,-0.38
2022-12-12T15:39:45.217Z,-0.33
2022-12-12T15:44:53.069Z,-0.37
2022-12-12T15:49:55.998Z,-0.46
2022-12-12T15:55:05.035Z,-0.57
2022-12-12T16:00:10.172Z,-0.62
2022-12-12T16:05:25.807Z,-0.71
2022-12-12T16:10:30.017Z,-0.79
2022-12-12T16:15:36.263Z,-0.89
2022-12-12T16:20:46.157Z,-1.00
2022-12-12T16:25:50.858Z,-1.08
2022-12-12T16:30:56.457Z,-1.16
2022-12-12T16:36:01.499Z,-1.23
2022-12-12T16:41:08.516Z,-1.21
2022-12-12T16:46:18.018Z,-1.28
2022-12-12T16:51:27.536Z,-1.37
2022-12-12T16:56:32.326Z,-1.40
2022-12-12T17:01:38.771Z,-1.46
2022-12-12T17:06:41.889Z,-1.53
2022-12-12T17:11:45.977Z,-1.63
2022-12-12T17:16:48.890Z,-1.71
2022-12-12T17:21:51.905Z,-1.80
2022-12-12T17:26:56.968Z,-1.89
2022-12-12T17:32:00.630Z,-1.99
2022-12-12T17:37:03.621Z,-2.04
2022-12-12T17:42:07.850Z,-2.08
2022-12-12T17:47:10.686Z,-2.13
2022-12-12T17:52:13.528Z,-2.19
2022-12-12T17:57:21.727Z,-2.24
2022-12-12T18:02:28.007Z,-2.30
2022-12-12T18:07:31.222Z,-2.33
2022-12-12T18:12:35.281Z,-2.37
2022-12-12T18:17:38.262Z,-2.40
2022-12-12T18:22:41.082Z,-2.42
2022-12-12T18:27:45.303Z,-2.42
2022-12-12T18:32:48.167Z,-2.45
2022-12-12T18:37:51.070Z,-2.50
2022-12-12T18:42:55.240Z,-2.60
2022-12-12T18:47:58.595Z,-2.66
2022-12-12T18:53:01.413Z,-2.80
2022-12-12T18:58:05.645Z,-2.89
2022-12-12T19:03:08.941Z,-2.98
2022-12-12T19:08:15.394Z,-3.03
2022-12-12T19:13:19.593Z,-3.04
2022-12-12T19:18:22.715Z,-3.07
2022-12-12T19:23:25.570Z,-3.08
2022-12-12T19:28:30.908Z,-3.16
2022-12-12T19:33:33.729Z,-3.20
2022-12-12T19:38:36.660Z,-3.23
2022-12-12T19:43:41.656Z,-3.25
2022-12-12T19:48:45.624Z,-3.30
2022-12-12T19:53:50.126Z,-3.40
2022-12-12T19:58:54.555Z,-3.49
2022-12-12T20:03:59.293Z,-3.54
2022-12-12T20:09:02.289Z,-3.57
2022-12-12T20:14:07.529Z,-3.64
2022-12-12T20:19:11.485Z,-3.69
2022-12-12T20:24:15.477Z,-3.76
2022-12-12T20:29:19.763Z,-3.80
2022-12-12T20:34:24.519Z,-3.86
2022-12-12T20:39:28.350Z,-3.90
2022-12-12T20:44:32.596Z,-3.91
2022-12-12T20:49:35.500Z,-3.94
2022-12-12T20:54:38.304Z,-3.92
2022-12-12T20:59:42.483Z,-3.97
2022-12-12T21:04:45.339Z,-4.00
2022-12-12T21:09:48.160Z,-4.03
2022-12-12T21:14:52.305Z,-4.00
2022-12-12T21:19:55.023Z,-3.98
2022-12-12T21:24:57.807Z,-3.97
2022-12-12T21:30:02.045Z,-3.96
2022-12-12T21:35:05.674Z,-4.01
2022-12-12T21:40:10.121Z,-4.01
2022-12-12T21:45:16.174Z,-4.00
2022-12-12T21:50:19.416Z,-3.97
2022-12-12T21:55:22.145Z,-3.98
2022-12-12T22:00:28.362Z,-3.99
2022-12-12T22:05:31.077Z,-3.96
2022-12-12T22:10:37.444Z,-3.99
2022-12-12T22:15:41.642Z,-4.07
2022-12-12T22:20:44.846Z,-4.08
2022-12-12T22:25:47.640Z,-4.13
2022-12-12T22:30:51.781Z,-4.19
2022-12-12T22:35:54.685Z,-4.28
2022-12-12T22:40:57.709Z,-4.29
2022-12-12T22:46:06.407Z,-4.32
2022-12-12T22:51:14.412Z,-4.29
2022-12-12T22:56:17.997Z,-4.21
2022-12-12T23:01:24.268Z,-4.08
2022-12-12T23:06:29.895Z,-3.94
2022-12-12T23:11:34.277Z,-3.86
2022-12-12T23:16:38.558Z,-3.79
2022-12-12T23:21:41.312Z,-3.75
2022-12-12T23:26:44.805Z,-3.67
2022-12-12T23:31:49.072Z,-3.64
2022-12-12T23:36:52.560Z,-3.70
2022-12-12T23:41:55.809Z,-3.66
2022-12-12T23:46:59.988Z,-3.62
2022-12-12T23:52:03.200Z,-3.57
2022-12-12T23:57:05.933Z,-3.66
